Main page
METAR-TAF:

METAR-TAF

Airports :

Niamtougou International Airport

Niamtougou, Togo

latitude: 09-46N, longitude: 001-06E, elevation: 342 m

Current weather observation

The report was made 34 minutes ago, at 21:00 UTC
Wind 4 kt from the Southwest
Temperature 28°C
Humidity 70%
Pressure 1014 hPa
Visibility 10 km or more
no clouds below 1500 m and no cumulonimbus

METAR: DXNG 202100Z 22004KT CAVOK 28/22 Q1014

Time: 21:34 (21:34 UTC)

Forecast

The report was made 49 minutes ago, at 20:45 UTC
Forecast valid from 20 at 21 UTC to 21 at 18 UTC
Wind 8 kt from the West/Southwest
Visibility 10 km or more
Scattered clouds at a height of 1000 ft
Temporary
from 20 at 21 UTC to 21 at 03 UTC
Wind 15 kt from the East with gusts up to 35 kt
Visibility: 3500 m
Broken clouds at a height of 800 ft
Few clouds at a height of 1600 ft, Cumulonimbus.
thunderstorm, rain

TAF: DXNG 202045Z 2021/2118 24008KT 9999 SCT010 TEMPO 2021/2103 10015G35KT 3500 TSRA BKN008 FEW016CB

Weather observations and forecasts of more than 4000 airports (METAR and TAF reports).

The available stations are represented by yellow and red dots on the map.

Hover mouse over dot to see the name of the station.

Then click to see weather observations and forecasts.

To change the map : click on the green buttons with a black cross to zoom in, on the green button with a dash to zoom out, or on the green arrows for adjacent maps.


METAR-TAF: